Time;durP1;ratioP1;P1;durP2;ratioP2;P2;SDS_P1;SDS_P2;PMS_P1;PMS_P2;Temp;Humidity;BMP_temperature;BMP_pressure;BME280_temperature;BME280_humidity;BME280_pressure;Samples;Min_cycle;Max_cycle;Signal;HPM_P1;HPM_P2
2023/10/04 00:01:41;;;;;;;;;1.25;1.25;;;;;17.61;54.33;102488.56;4958023;28;45292;-69
2023/10/04 00:04:07;;;;;;;;;0.00;0.00;;;;;17.60;53.93;102492.25;4958203;28;45441;-69
2023/10/04 00:06:32;;;;;;;;;2.00;1.00;;;;;17.57;54.02;102492.56;4958267;28;45414;-69
2023/10/04 00:09:02;;;;;;;;;0.50;0.50;;;;;17.57;54.50;102495.25;4957535;28;46646;-69
2023/10/04 00:11:27;;;;;;;;;2.25;1.75;;;;;17.54;53.96;102476.72;4958163;28;45499;-69
2023/10/04 00:13:53;;;;;;;;;4.25;3.00;;;;;17.49;54.15;102476.31;4957831;28;45320;-68
2023/10/04 00:16:18;;;;;;;;;2.75;2.00;;;;;17.50;54.09;102486.09;4957958;28;45408;-70
2023/10/04 00:18:44;;;;;;;;;4.50;2.75;;;;;17.38;54.10;102471.09;4957807;28;47487;-70
2023/10/04 00:21:13;;;;;;;;;1.25;1.00;;;;;17.38;54.19;102473.78;4957662;28;45388;-69
2023/10/04 00:23:38;;;;;;;;;1.00;1.00;;;;;17.43;54.51;102479.59;4957653;28;45248;-69
2023/10/04 00:26:07;;;;;;;;;2.00;0.25;;;;;17.40;54.57;102469.13;4958001;28;46312;-69
2023/10/04 00:28:32;;;;;;;;;2.00;2.00;;;;;17.40;54.51;102466.44;4957656;28;47317;-69
2023/10/04 00:30:57;;;;;;;;;1.50;1.50;;;;;17.37;54.25;102464.03;4957663;28;45366;-69
2023/10/04 00:33:23;;;;;;;;;3.00;2.00;;;;;17.39;54.29;102468.28;4957373;28;51133;-71
2023/10/04 00:35:50;;;;;;;;;1.75;1.00;;;;;17.37;54.73;102474.78;4957668;28;45314;-68
2023/10/04 00:38:17;;;;;;;;;1.75;0.00;;;;;17.16;55.14;102443.59;4957313;28;47270;-69
2023/10/04 00:40:43;;;;;;;;;1.75;0.75;;;;;16.98;54.73;102429.19;4957535;28;45321;-69
2023/10/04 00:43:15;;;;;;;;;1.00;1.00;;;;;17.30;54.59;102478.06;4957734;28;45231;-70
2023/10/04 00:45:47;;;;;;;;;3.25;1.75;;;;;17.27;54.87;102473.00;4960241;28;45314;-69
2023/10/04 00:48:17;;;;;;;;;0.00;0.00;;;;;17.23;55.00;102482.34;4960476;28;47418;-69
2023/10/04 00:50:44;;;;;;;;;0.00;0.00;;;;;17.05;54.93;102441.09;4960587;28;45236;-69
2023/10/04 00:53:13;;;;;;;;;1.25;1.00;;;;;17.16;55.20;102477.69;4960710;28;45247;-69
2023/10/04 00:55:40;;;;;;;;;0.00;0.00;;;;;17.05;55.39;102470.66;4960914;28;45476;-69
2023/10/04 00:58:07;;;;;;;;;0.00;0.00;;;;;17.07;55.74;102484.78;4960537;28;47540;-68
2023/10/04 01:00:33;;;;;;;;;2.25;1.00;;;;;17.10;55.69;102486.31;4960700;28;45315;-69
2023/10/04 01:02:59;;;;;;;;;2.75;1.00;;;;;17.02;55.65;102465.56;4960743;28;45296;-70
2023/10/04 01:05:30;;;;;;;;;1.75;0.75;;;;;16.68;55.60;102411.44;4952197;28;45424;-69
2023/10/04 01:07:57;;;;;;;;;2.00;1.00;;;;;17.01;55.91;102475.44;4940894;28;46506;-70
2023/10/04 01:10:33;;;;;;;;;3.25;1.50;;;;;16.99;56.17;102485.47;4941145;28;45347;-71
2023/10/04 01:12:59;;;;;;;;;1.00;1.00;;;;;16.93;55.91;102474.47;4941216;28;45385;-71
2023/10/04 01:17:50;;;;;;;;;2.50;1.75;;;;;16.99;55.91;102488.16;4940966;28;46415;-70
2023/10/04 01:20:16;;;;;;;;;1.00;1.00;;;;;16.92;56.02;102480.84;4940953;28;45272;-69
2023/10/04 01:22:41;;;;;;;;;0.00;0.00;;;;;16.59;56.23;102442.63;4940987;28;45426;-70
2023/10/04 01:25:11;;;;;;;;;2.75;0.25;;;;;16.83;56.44;102485.25;4956039;28;45485;-69
2023/10/04 01:27:38;;;;;;;;;2.00;1.00;;;;;16.86;56.30;102502.91;4940838;28;47454;-69
2023/10/04 01:30:05;;;;;;;;;1.75;0.25;;;;;16.85;56.65;102493.16;4940826;28;45337;-69
2023/10/04 01:32:31;;;;;;;;;2.75;1.00;;;;;16.78;56.32;102490.16;4940973;28;45311;-68
2023/10/04 01:34:56;;;;;;;;;2.00;1.00;;;;;16.76;56.56;102484.09;4940729;28;45486;-68
2023/10/04 01:37:22;;;;;;;;;2.50;1.00;;;;;16.62;56.83;102466.56;4940661;28;46600;-69
2023/10/04 01:39:47;;;;;;;;;1.00;1.00;;;;;16.81;56.53;102489.88;4939885;28;61128;-69
2023/10/04 01:42:12;;;;;;;;;0.75;0.75;;;;;16.66;56.45;102476.06;4940354;28;50566;-69
2023/10/04 01:44:37;;;;;;;;;2.25;0.75;;;;;16.55;56.77;102435.88;4940454;28;54669;-69
2023/10/04 01:47:03;;;;;;;;;1.00;1.00;;;;;16.75;56.82;102468.13;4939964;28;63189;-68
2023/10/04 01:49:29;;;;;;;;;0.25;0.25;;;;;16.79;56.81;102465.00;4955454;28;45335;-69
2023/10/04 01:51:54;;;;;;;;;1.00;1.00;;;;;16.84;56.67;102469.97;4940520;28;45340;-69
2023/10/04 01:54:20;;;;;;;;;1.75;1.75;;;;;16.86;56.83;102470.66;4940684;28;45490;-69
2023/10/04 01:56:46;;;;;;;;;0.00;0.00;;;;;16.82;56.80;102453.13;4940041;28;46231;-70
2023/10/04 01:59:13;;;;;;;;;2.50;1.50;;;;;16.66;56.87;102433.09;4940160;28;45209;-70
2023/10/04 02:01:40;;;;;;;;;3.75;1.25;;;;;16.83;56.99;102452.16;4955292;28;45473;-69
2023/10/04 02:04:06;;;;;;;;;1.75;1.00;;;;;16.85;57.10;102453.69;4940512;28;45556;-69
2023/10/04 02:06:33;;;;;;;;;1.00;1.00;;;;;16.67;56.82;102415.97;4957479;28;46794;-69
2023/10/04 02:09:00;;;;;;;;;1.00;1.00;;;;;16.78;56.99;102430.22;4959280;28;45409;-70
2023/10/04 02:11:26;;;;;;;;;5.00;3.25;;;;;16.83;57.01;102433.34;4959649;28;45359;-70
2023/10/04 02:13:52;;;;;;;;;2.75;1.00;;;;;16.84;57.11;102435.03;4959631;28;45438;-69
2023/10/04 02:16:21;;;;;;;;;2.00;0.50;;;;;16.78;57.12;102422.16;4959231;28;47145;-70
2023/10/04 02:18:48;;;;;;;;;4.25;2.00;;;;;16.48;57.16;102383.75;4959423;28;45244;-70
2023/10/04 02:21:13;;;;;;;;;4.00;1.75;;;;;16.73;57.14;102431.50;4959565;28;45399;-69
2023/10/04 02:23:39;;;;;;;;;0.50;0.50;;;;;16.69;57.01;102423.88;4959406;28;45453;-69
2023/10/04 02:26:06;;;;;;;;;2.25;2.25;;;;;16.82;57.57;102455.81;4959236;28;46448;-69
2023/10/04 02:28:33;;;;;;;;;1.00;1.00;;;;;16.72;57.34;102437.88;4959388;28;45456;-69
2023/10/04 02:31:02;;;;;;;;;1.00;1.00;;;;;16.73;57.59;102428.81;4959541;28;45311;-70
2023/10/04 02:33:32;;;;;;;;;1.50;1.50;;;;;16.78;57.61;102439.13;4959352;28;45341;-69
2023/10/04 02:36:00;;;;;;;;;2.50;0.25;;;;;16.65;57.89;102423.28;4958847;28;46872;-70
2023/10/04 02:38:33;;;;;;;;;3.00;2.00;;;;;16.76;57.58;102429.53;4958900;28;45324;-69
2023/10/04 02:40:59;;;;;;;;;4.00;3.25;;;;;16.76;57.47;102427.69;4959137;28;45526;-70
2023/10/04 02:43:25;;;;;;;;;2.00;1.25;;;;;16.66;57.43;102424.16;4959435;28;45304;-70
2023/10/04 02:45:52;;;;;;;;;2.00;1.00;;;;;16.70;57.78;102434.47;4958900;28;46466;-69
2023/10/04 02:48:19;;;;;;;;;0.25;0.25;;;;;16.75;57.55;102446.63;4958939;28;45240;-69
2023/10/04 02:50:45;;;;;;;;;1.50;1.50;;;;;16.66;57.93;102443.81;4959125;28;45263;-69
2023/10/04 02:53:12;;;;;;;;;2.00;1.00;;;;;16.70;57.77;102439.84;4959040;28;45416;-69
2023/10/04 02:55:39;;;;;;;;;0.00;0.00;;;;;16.68;57.85;102441.84;4958873;28;46510;-70
2023/10/04 02:58:07;;;;;;;;;3.00;1.00;;;;;16.61;57.91;102435.28;4959049;28;45279;-70
2023/10/04 03:00:45;;;;;;;;;0.75;0.75;;;;;16.70;57.90;102449.75;4958887;28;45567;-68
2023/10/04 03:03:14;;;;;;;;;2.75;1.00;;;;;16.69;57.94;102451.59;4958843;28;45329;-70
2023/10/04 03:05:40;;;;;;;;;2.67;2.00;;;;;16.71;58.06;102451.44;4948067;28;47589;-69
2023/10/04 03:08:07;;;;;;;;;2.00;0.25;;;;;16.41;58.52;102415.66;4938294;28;45378;-69
2023/10/04 03:10:34;;;;;;;;;1.00;1.00;;;;;16.66;58.46;102457.25;4939415;28;45447;-69
2023/10/04 03:13:11;;;;;;;;;3.50;1.00;;;;;16.64;58.34;102456.53;4939745;28;45511;-69
2023/10/04 03:15:40;;;;;;;;;4.33;3.00;;;;;16.65;58.14;102471.63;4939400;28;47928;-69
2023/10/04 03:18:13;;;;;;;;;1.00;1.00;;;;;16.60;58.62;102464.97;4939357;28;45487;-69
2023/10/04 03:20:56;;;;;;;;;1.75;1.50;;;;;16.63;58.56;102475.47;4939224;28;45287;-69
2023/10/04 03:23:23;;;;;;;;;1.00;1.00;;;;;16.59;58.52;102457.91;4939043;28;45275;-69
2023/10/04 03:25:51;;;;;;;;;1.75;0.00;;;;;16.53;58.69;102443.22;4939135;28;46625;-69
2023/10/04 03:28:16;;;;;;;;;3.00;2.00;;;;;16.58;58.63;102461.59;4939077;28;45350;-69
2023/10/04 03:30:43;;;;;;;;;3.25;3.25;;;;;16.60;58.34;102471.19;4939168;28;45504;-69
2023/10/04 03:33:08;;;;;;;;;2.00;0.00;;;;;16.43;58.34;102442.38;4939295;28;45460;-68
2023/10/04 03:35:36;;;;;;;;;2.00;1.00;;;;;16.52;58.46;102465.69;4918314;28;46682;-68
2023/10/04 03:38:07;;;;;;;;;3.75;2.75;;;;;16.48;58.63;102445.50;4919443;28;45319;-70
2023/10/04 03:40:38;;;;;;;;;3.00;3.00;;;;;16.52;58.68;102454.09;4934383;28;45453;-69
2023/10/04 03:43:05;;;;;;;;;3.25;1.75;;;;;16.51;58.85;102447.88;4920009;28;45500;-70
2023/10/04 03:45:40;;;;;;;;;1.50;1.50;;;;;16.51;58.87;102447.88;4919495;28;46590;-70
2023/10/04 03:48:21;;;;;;;;;3.75;2.75;;;;;16.40;59.08;102435.44;4919611;28;45241;-69
2023/10/04 03:50:48;;;;;;;;;4.00;2.50;;;;;16.48;58.90;102445.50;4919740;28;45429;-70
2023/10/04 03:53:15;;;;;;;;;1.50;1.50;;;;;16.32;58.99;102418.34;4919779;28;45493;-70
2023/10/04 03:55:42;;;;;;;;;2.00;1.00;;;;;16.49;59.12;102457.06;4919290;28;45813;-71
2023/10/04 03:58:09;;;;;;;;;2.75;1.00;;;;;16.42;58.96;102436.16;4919385;28;45548;-70
2023/10/04 04:00:36;;;;;;;;;2.33;2.33;;;;;16.48;59.29;102458.06;4919283;28;45451;-70
2023/10/04 04:03:03;;;;;;;;;4.00;3.33;;;;;16.48;59.36;102450.84;4919423;28;45579;-70
2023/10/04 04:05:30;;;;;;;;;2.00;1.00;;;;;16.46;59.30;102442.09;4919166;28;46435;-69
2023/10/04 04:07:56;;;;;;;;;1.00;1.00;;;;;16.45;59.29;102461.88;4919110;28;45425;-69
2023/10/04 04:10:22;;;;;;;;;3.25;1.00;;;;;16.39;59.35;102443.63;4919623;28;45276;-70
2023/10/04 04:12:47;;;;;;;;;4.00;2.00;;;;;16.45;59.29;102459.19;4919747;28;45512;-69
2023/10/04 04:15:23;;;;;;;;;1.50;1.25;;;;;16.12;59.52;102402.22;4929898;28;45723;-69
2023/10/04 04:17:50;;;;;;;;;4.00;1.00;;;;;16.47;59.51;102457.22;4936557;28;45355;-71
2023/10/04 04:20:16;;;;;;;;;4.25;1.00;;;;;16.20;59.62;102419.47;4940978;28;45420;-69
2023/10/04 04:22:55;;;;;;;;;1.50;1.50;;;;;16.00;59.48;102394.44;4940995;28;45529;-69
2023/10/04 04:25:24;;;;;;;;;1.00;1.00;;;;;16.33;59.59;102452.25;4941555;28;45849;-69
2023/10/04 04:27:51;;;;;;;;;1.25;0.75;;;;;16.38;59.83;102460.72;4956584;28;45381;-69
2023/10/04 04:30:27;;;;;;;;;6.00;3.00;;;;;16.31;60.11;102448.88;4940507;28;45508;-69
2023/10/04 04:32:56;;;;;;;;;1.75;1.75;;;;;16.23;59.78;102446.03;4944094;28;45568;-69
2023/10/04 04:38:12;;;;;;;;;4.25;1.00;;;;;16.36;59.50;102474.28;4938818;28;45371;-69
2023/10/04 04:40:38;;;;;;;;;1.25;1.25;;;;;16.15;59.80;102437.81;4938954;28;45673;-70
2023/10/04 04:43:17;;;;;;;;;2.25;1.25;;;;;16.24;59.68;102459.31;4939480;28;45522;-70
2023/10/04 04:45:49;;;;;;;;;1.75;1.75;;;;;16.28;60.17;102457.19;4939478;28;46365;-69
2023/10/04 04:48:15;;;;;;;;;2.00;0.75;;;;;16.34;59.82;102470.06;4940569;28;45317;-72
2023/10/04 04:50:41;;;;;;;;;1.75;1.00;;;;;16.04;59.85;102423.56;4948481;28;45197;-68
2023/10/04 04:53:11;;;;;;;;;3.75;1.25;;;;;15.68;59.80;102359.81;4961685;28;45208;-69
2023/10/04 04:55:36;;;;;;;;;3.75;1.00;;;;;16.25;59.76;102444.06;4965739;28;46527;-69
2023/10/04 04:58:01;;;;;;;;;2.00;2.00;;;;;16.30;59.77;102464.13;4964264;28;45435;-70
2023/10/04 05:00:36;;;;;;;;;2.25;1.75;;;;;16.29;60.07;102456.22;4960282;28;45514;-70
2023/10/04 05:03:03;;;;;;;;;3.50;2.00;;;;;16.27;60.13;102453.66;4954855;28;45501;-69
2023/10/04 05:05:29;;;;;;;;;5.25;2.00;;;;;16.30;59.72;102447.16;4940739;28;45839;-72
2023/10/04 05:07:55;;;;;;;;;3.33;2.00;;;;;16.30;60.04;102457.91;4947534;28;45670;-70
2023/10/04 05:10:22;;;;;;;;;1.75;1.75;;;;;16.28;60.22;102455.38;4958688;28;45549;-69
2023/10/04 05:12:48;;;;;;;;;2.50;1.25;;;;;16.25;60.18;102460.16;4960436;28;45480;-70
2023/10/04 05:15:31;;;;;;;;;1.33;1.00;;;;;16.20;60.08;102451.66;4960049;28;46406;-69
2023/10/04 05:17:58;;;;;;;;;3.75;2.00;;;;;16.20;60.82;102459.72;4954554;28;45552;-70
2023/10/04 05:20:25;;;;;;;;;3.67;2.00;;;;;16.20;60.67;102448.97;4959619;28;45527;-70
2023/10/04 05:22:50;;;;;;;;;1.75;1.75;;;;;16.25;60.35;102460.16;4958680;28;45231;-71
2023/10/04 05:25:20;;;;;;;;;2.00;2.00;;;;;16.13;60.72;102441.50;4940610;28;45625;-68
2023/10/04 05:27:50;;;;;;;;;2.33;2.33;;;;;16.19;61.41;102466.06;4940305;28;45427;-69
2023/10/04 05:30:17;;;;;;;;;3.50;1.75;;;;;16.16;60.67;102455.63;4940144;28;45511;-72
2023/10/04 05:32:45;;;;;;;;;3.33;2.00;;;;;16.21;60.98;102474.81;4940376;28;45466;-70
2023/10/04 05:35:16;;;;;;;;;2.67;2.67;;;;;16.14;60.82;102469.19;4940133;28;46513;-69
2023/10/04 05:37:42;;;;;;;;;3.00;2.00;;;;;16.16;61.01;102471.72;4955715;28;45366;-70
2023/10/04 05:40:23;;;;;;;;;3.00;3.00;;;;;16.11;61.13;102464.94;4960041;28;45382;-68
2023/10/04 05:42:48;;;;;;;;;2.00;2.00;;;;;16.10;61.07;102462.41;4959984;28;45567;-69
2023/10/04 05:45:14;;;;;;;;;1.75;1.25;;;;;16.14;61.15;102469.19;4959328;28;46229;-70
2023/10/04 05:47:39;;;;;;;;;5.25;4.25;;;;;16.11;60.84;102464.09;4945978;28;45551;-70
2023/10/04 05:50:10;;;;;;;;;5.00;2.25;;;;;16.04;60.84;102457.59;4945786;28;45427;-70
2023/10/04 05:52:39;;;;;;;;;3.25;2.00;;;;;16.09;61.15;102458.00;4959404;28;45575;-68
2023/10/04 05:55:08;;;;;;;;;4.25;2.00;;;;;16.02;60.93;102438.94;4958853;28;47447;-68
2023/10/04 05:57:34;;;;;;;;;3.25;3.00;;;;;16.06;61.05;102442.19;4942471;28;45463;-70
2023/10/04 05:59:59;;;;;;;;;3.00;3.00;;;;;15.81;60.61;102405.97;4959574;28;45260;-69
2023/10/04 06:02:24;;;;;;;;;3.33;2.00;;;;;16.08;61.25;102461.69;4959170;28;45440;-69
2023/10/04 06:04:50;;;;;;;;;5.50;2.00;;;;;15.48;60.61;102359.75;4959057;28;46348;-68
2023/10/04 06:07:16;;;;;;;;;2.25;1.25;;;;;16.02;60.75;102459.56;4959083;28;45379;-69
2023/10/04 06:09:45;;;;;;;;;4.33;4.00;;;;;16.08;60.96;102464.38;4959026;28;45485;-69
2023/10/04 06:12:11;;;;;;;;;4.33;4.33;;;;;16.09;60.58;102466.91;4959332;28;45573;-69
2023/10/04 06:14:37;;;;;;;;;5.00;5.00;;;;;16.10;60.46;102479.34;4959232;28;46437;-70
2023/10/04 06:17:04;;;;;;;;;7.00;3.00;;;;;15.72;60.60;102410.34;4959046;28;45463;-70
2023/10/04 06:19:30;;;;;;;;;3.00;3.00;;;;;16.12;60.36;102477.38;4941743;28;45250;-70
2023/10/04 06:21:56;;;;;;;;;3.50;2.50;;;;;16.11;60.52;102473.00;4941772;28;45603;-69
2023/10/04 06:24:22;;;;;;;;;8.25;4.00;;;;;16.03;60.30;102455.91;4958881;28;46371;-69
2023/10/04 06:26:47;;;;;;;;;4.00;4.00;;;;;16.14;60.36;102479.91;4957892;28;45338;-71
2023/10/04 06:29:13;;;;;;;;;5.00;4.00;;;;;15.83;59.78;102430.84;4957902;28;45313;-69
2023/10/04 06:31:38;;;;;;;;;4.33;3.67;;;;;16.17;60.10;102481.47;4957632;28;45304;-69
2023/10/04 06:34:03;;;;;;;;;2.50;2.50;;;;;16.20;59.98;102473.13;4956446;28;58757;-70
2023/10/04 06:36:29;;;;;;;;;4.25;2.50;;;;;16.15;59.69;102464.66;4953104;28;45337;-69
2023/10/04 06:38:55;;;;;;;;;6.00;5.00;;;;;16.26;59.68;102477.97;4932190;28;45418;-70
2023/10/04 06:41:25;;;;;;;;;2.67;2.00;;;;;16.33;59.77;102492.50;4942708;28;45492;-70
2023/10/04 06:43:51;;;;;;;;;4.00;3.00;;;;;16.35;59.42;102495.91;4938265;28;46630;-69
2023/10/04 06:46:17;;;;;;;;;3.67;3.33;;;;;15.75;59.39;102390.44;4936996;28;46485;-69
2023/10/04 06:48:43;;;;;;;;;2.00;2.00;;;;;16.33;59.26;102481.78;4939749;28;45462;-69
2023/10/04 06:51:08;;;;;;;;;4.00;4.00;;;;;16.34;59.20;102486.16;4935096;28;45344;-69
2023/10/04 06:53:33;;;;;;;;;5.33;4.00;;;;;16.43;59.15;102496.06;4948250;28;49197;-70
2023/10/04 06:55:59;;;;;;;;;5.67;3.33;;;;;16.24;59.12;102470.06;4939998;28;45275;-70
2023/10/04 06:58:25;;;;;;;;;5.00;2.67;;;;;16.39;58.64;102500.00;4946362;28;45480;-69
2023/10/04 07:00:50;;;;;;;;;5.67;3.67;;;;;16.45;58.81;102498.63;4939161;28;45427;-69
2023/10/04 07:03:15;;;;;;;;;6.00;5.33;;;;;16.47;58.72;102497.50;4935229;28;47765;-70
2023/10/04 07:05:41;;;;;;;;;5.67;5.00;;;;;16.48;58.52;102504.56;4940970;28;45762;-70
2023/10/04 07:08:09;;;;;;;;;7.67;5.33;;;;;16.59;58.58;102512.47;4944320;28;45540;-70
2023/10/04 07:10:34;;;;;;;;;4.67;4.67;;;;;16.67;58.11;102514.50;4945716;28;45614;-72
2023/10/04 07:13:02;;;;;;;;;9.00;5.50;;;;;16.87;58.32;102520.72;4948525;28;45374;-68
2023/10/04 07:15:30;;;;;;;;;8.33;6.00;;;;;17.19;58.00;102515.84;4949186;28;45282;-69
2023/10/04 07:17:56;;;;;;;;;12.75;11.50;;;;;17.68;57.25;102515.78;4957388;28;45583;-70
2023/10/04 07:20:24;;;;;;;;;6.00;6.00;;;;;18.06;55.46;102509.38;4948855;28;45426;-68
2023/10/04 07:22:51;;;;;;;;;10.67;7.67;;;;;18.43;54.53;102517.38;4947904;28;46262;-68
2023/10/04 07:25:17;;;;;;;;;5.00;5.00;;;;;18.73;54.00;102505.38;4945741;28;45246;-68
2023/10/04 07:27:44;;;;;;;;;5.25;4.50;;;;;19.04;53.02;102513.91;4946898;28;45474;-70
2023/10/04 07:30:12;;;;;;;;;6.00;6.00;;;;;19.30;52.26;102511.25;4953010;28;45294;-70
2023/10/04 07:32:41;;;;;;;;;5.00;5.00;;;;;19.72;51.48;102523.00;4949913;28;46645;-80
2023/10/04 07:35:08;;;;;;;;;10.00;9.00;;;;;20.07;50.69;102515.72;4952611;28;45471;-70
2023/10/04 07:37:33;;;;;;;;;4.00;4.00;;;;;20.35;49.82;102536.06;4951543;28;45422;-68
2023/10/04 07:39:59;;;;;;;;;5.00;3.25;;;;;20.54;49.23;102529.56;4948446;28;45532;-69
2023/10/04 07:42:26;;;;;;;;;6.25;4.00;;;;;20.69;48.88;102527.03;4946317;28;46720;-69
2023/10/04 07:44:51;;;;;;;;;6.00;6.00;;;;;20.94;48.32;102533.31;4942857;28;45759;-69
2023/10/04 07:47:17;;;;;;;;;5.50;4.50;;;;;21.01;48.08;102530.75;4938087;28;45509;-70
2023/10/04 07:49:42;;;;;;;;;3.50;2.50;;;;;21.15;47.33;102532.78;4944369;28;45560;-69
2023/10/04 07:52:08;;;;;;;;;4.50;2.75;;;;;21.24;47.52;102538.06;4948347;28;46830;-70
2023/10/04 07:54:34;;;;;;;;;5.00;5.00;;;;;21.37;46.74;102545.66;4944393;28;45517;-69
2023/10/04 07:57:00;;;;;;;;;4.75;4.00;;;;;21.34;46.88;102551.41;4951516;28;45540;-69
2023/10/04 07:59:26;;;;;;;;;4.00;3.50;;;;;21.32;47.24;102537.22;4947603;28;45502;-69
2023/10/04 08:01:52;;;;;;;;;6.50;6.50;;;;;21.48;46.87;102548.00;4932974;28;47981;-69
2023/10/04 08:04:17;;;;;;;;;5.00;3.75;;;;;21.54;46.78;102558.16;4945739;28;45478;-70
2023/10/04 08:06:49;;;;;;;;;7.00;4.33;;;;;21.52;46.64;102552.06;4956325;28;45512;-68
2023/10/04 08:09:14;;;;;;;;;4.67;4.67;;;;;21.60;46.60;102564.72;4955061;28;45458;-71
2023/10/04 08:11:41;;;;;;;;;3.50;2.00;;;;;21.64;46.40;102563.38;4959706;28;45709;-68
2023/10/04 08:14:07;;;;;;;;;4.75;3.75;;;;;21.64;46.40;102566.09;4952152;28;45334;-70
2023/10/04 08:16:33;;;;;;;;;4.67;4.00;;;;;21.64;46.36;102568.78;4946817;28;45353;-69
2023/10/04 08:18:59;;;;;;;;;3.00;3.00;;;;;21.63;46.34;102569.81;4944926;28;45404;-68
2023/10/04 08:21:25;;;;;;;;;4.50;2.75;;;;;21.56;46.37;102561.50;4944929;28;45509;-70
2023/10/04 08:23:50;;;;;;;;;5.00;5.00;;;;;21.50;46.79;102564.94;4954373;28;45495;-69
2023/10/04 08:26:16;;;;;;;;;6.25;5.00;;;;;21.40;46.90;102536.34;4948797;28;45482;-69
2023/10/04 08:28:42;;;;;;;;;5.75;3.75;;;;;21.34;46.73;102529.75;4944690;28;45513;-69
2023/10/04 08:31:13;;;;;;;;;3.00;3.00;;;;;21.45;46.63;102555.63;4949155;28;46339;-69
2023/10/04 08:33:39;;;;;;;;;6.25;4.00;;;;;21.49;46.70;102547.00;4948851;28;45279;-69
2023/10/04 08:36:10;;;;;;;;;4.75;4.75;;;;;21.50;46.59;102543.28;4949684;28;45311;-69
2023/10/04 08:38:36;;;;;;;;;8.00;5.00;;;;;21.53;46.97;102542.94;4954873;28;45415;-69
2023/10/04 08:41:02;;;;;;;;;8.25;6.50;;;;;21.50;46.82;102526.19;4951180;28;46599;-69
2023/10/04 08:43:29;;;;;;;;;5.00;5.00;;;;;21.60;46.50;102532.25;4948310;28;45800;-69
2023/10/04 08:45:56;;;;;;;;;4.75;3.50;;;;;21.67;46.28;102552.19;4949167;28;45331;-69
2023/10/04 08:48:25;;;;;;;;;6.50;5.75;;;;;21.46;46.26;102514.88;4948261;28;45527;-68
2023/10/04 08:51:23;;;;;;;;;10.25;4.00;;;;;21.73;46.38;102547.94;4940806;28;46541;-69
2023/10/04 08:54:08;;;;;;;;;3.00;2.00;;;;;21.48;46.05;102503.88;4949191;28;45541;-69
2023/10/04 08:56:44;;;;;;;;;5.25;4.25;;;;;21.83;46.15;102548.63;4948196;28;45296;-68
2023/10/04 08:59:11;;;;;;;;;2.75;2.50;;;;;21.76;45.70;102536.78;4943461;28;45574;-69
2023/10/04 09:01:39;;;;;;;;;5.50;5.50;;;;;21.71;45.92;102556.25;4941195;28;47583;-69
2023/10/04 09:04:06;;;;;;;;;5.50;3.00;;;;;21.73;46.23;102569.59;4942915;28;45422;-79
2023/10/04 09:06:31;;;;;;;;;4.50;4.00;;;;;21.72;46.06;102571.47;4947126;28;45367;-69
2023/10/04 09:08:57;;;;;;;;;4.75;3.00;;;;;21.70;46.34;102569.97;4952885;28;45466;-69
2023/10/04 09:11:23;;;;;;;;;6.00;6.00;;;;;21.66;46.41;102571.34;4950992;28;48058;-69
2023/10/04 09:13:50;;;;;;;;;4.25;4.25;;;;;21.67;46.37;102557.63;4956117;28;45491;-68
2023/10/04 09:16:28;;;;;;;;;8.50;3.00;;;;;21.79;46.02;102558.91;4941154;28;45311;-70
2023/10/04 09:19:07;;;;;;;;;4.25;4.00;;;;;21.84;46.00;102551.16;4953703;28;45434;-70
2023/10/04 09:21:36;;;;;;;;;4.25;4.25;;;;;21.85;45.45;102544.72;4950427;28;46624;-70
2023/10/04 09:24:10;;;;;;;;;4.25;4.25;;;;;21.86;46.23;102553.69;4949765;28;45663;-71
2023/10/04 09:26:42;;;;;;;;;8.00;4.50;;;;;21.96;45.97;102556.16;4942745;28;45371;-71
2023/10/04 09:29:08;;;;;;;;;5.33;5.33;;;;;22.12;45.33;102553.44;4947886;28;45363;-69
2023/10/04 09:31:46;;;;;;;;;3.00;3.00;;;;;22.24;45.25;102564.72;4948889;28;46656;-70
2023/10/04 09:34:16;;;;;;;;;3.00;3.00;;;;;21.81;45.10;102477.50;4949830;28;45683;-68
2023/10/04 09:36:42;;;;;;;;;6.00;5.00;;;;;22.17;45.16;102513.94;4947982;28;45565;-70
2023/10/04 09:39:23;;;;;;;;;6.25;4.00;;;;;22.15;44.80;102515.97;4947531;28;45498;-70
2023/10/04 09:41:50;;;;;;;;;8.00;4.25;;;;;22.43;45.17;102558.88;4946640;28;46718;-68
2023/10/04 09:44:23;;;;;;;;;6.50;4.50;;;;;22.46;44.38;102553.09;4949491;28;45456;-69
2023/10/04 09:46:57;;;;;;;;;5.75;3.00;;;;;22.45;44.47;102545.97;4951911;28;45481;-69
2023/10/04 09:49:29;;;;;;;;;3.25;3.00;;;;;22.35;44.24;102531.81;4945326;28;45513;-69
2023/10/04 09:51:55;;;;;;;;;4.50;2.75;;;;;22.08;44.47;102498.75;4952336;28;47764;-70
2023/10/04 09:54:22;;;;;;;;;7.00;3.25;;;;;22.20;44.23;102517.31;4951760;28;45601;-69
2023/10/04 09:56:49;;;;;;;;;3.50;3.50;;;;;22.31;44.46;102541.31;4943765;28;45442;-68
2023/10/04 09:59:19;;;;;;;;;7.25;5.75;;;;;21.95;44.83;102487.63;4943073;28;45565;-69
2023/10/04 10:01:55;;;;;;;;;4.00;3.00;;;;;22.08;44.74;102525.84;4935551;28;48575;-69
2023/10/04 10:04:23;;;;;;;;;4.25;2.25;;;;;21.73;44.63;102472.16;4943252;28;45441;-69
2023/10/04 10:07:06;;;;;;;;;2.75;2.25;;;;;22.01;44.87;102530.22;4947086;28;45582;-70
2023/10/04 10:09:34;;;;;;;;;1.25;1.25;;;;;22.07;44.53;102535.00;4949646;28;45637;-68
2023/10/04 10:12:01;;;;;;;;;4.00;2.50;;;;;22.05;44.28;102530.78;4943986;28;46768;-68
2023/10/04 10:14:27;;;;;;;;;7.00;7.00;;;;;21.89;44.65;102510.00;4951283;28;45446;-71
2023/10/04 10:16:54;;;;;;;;;6.00;5.00;;;;;21.84;44.75;102528.63;4950722;28;45413;-69
2023/10/04 10:19:23;;;;;;;;;4.75;4.75;;;;;21.86;45.64;102521.19;4952996;28;45613;-69
2023/10/04 10:22:02;;;;;;;;;2.75;2.00;;;;;21.98;44.55;102519.75;4938068;28;45916;-69
2023/10/04 10:24:28;;;;;;;;;3.25;2.00;;;;;21.82;44.45;102507.16;4922803;28;45517;-69
2023/10/04 10:27:08;;;;;;;;;4.25;2.75;;;;;21.91;44.49;102521.50;4955402;28;45269;-70
2023/10/04 10:29:36;;;;;;;;;1.75;1.75;;;;;21.86;44.22;102494.94;4940229;28;45422;-70
2023/10/04 10:32:06;;;;;;;;;2.50;2.50;;;;;21.82;44.07;102506.28;4950238;28;46529;-70
2023/10/04 10:34:32;;;;;;;;;2.75;2.75;;;;;21.79;44.35;102514.75;4944102;28;45493;-70
2023/10/04 10:37:17;;;;;;;;;4.25;2.50;;;;;21.83;44.41;102529.66;4935881;28;45640;-70
2023/10/04 10:39:45;;;;;;;;;2.00;2.00;;;;;21.74;44.61;102515.28;4946253;28;45502;-69
2023/10/04 10:42:11;;;;;;;;;4.00;3.00;;;;;21.63;44.69;102499.44;4947489;28;46083;-71
2023/10/04 10:44:39;;;;;;;;;3.25;3.25;;;;;21.74;45.08;102522.56;4939366;28;45317;-70
2023/10/04 10:47:25;;;;;;;;;4.00;4.00;;;;;21.82;44.85;102519.81;4946008;28;45526;-69
2023/10/04 10:50:12;;;;;;;;;4.25;3.75;;;;;21.93;44.96;102514.03;4945490;28;45553;-69
2023/10/04 10:52:39;;;;;;;;;3.50;3.50;;;;;21.92;44.47;102512.34;4958195;28;46979;-69
2023/10/04 10:55:17;;;;;;;;;5.00;4.25;;;;;21.88;44.72;102502.06;4967314;28;45429;-70
2023/10/04 10:57:45;;;;;;;;;5.75;5.25;;;;;21.87;44.90;102506.63;4943446;28;45389;-69
2023/10/04 11:02:43;;;;;;;;;5.00;3.00;;;;;21.89;44.27;102499.16;4953429;28;45920;-69
2023/10/04 11:05:09;;;;;;;;;6.25;5.00;;;;;21.85;44.50;102503.25;4961247;28;45406;-70
2023/10/04 11:07:36;;;;;;;;;3.00;3.00;;;;;21.91;45.17;102501.69;4948199;28;45557;-69
2023/10/04 11:10:04;;;;;;;;;5.50;4.00;;;;;21.89;44.52;102484.78;4939475;28;45478;-72
2023/10/04 11:12:33;;;;;;;;;2.75;2.25;;;;;21.77;43.90;102471.63;4946873;28;46620;-72
2023/10/04 11:15:00;;;;;;;;;5.75;4.00;;;;;21.99;43.57;102483.53;4958226;28;45630;-69
2023/10/04 11:17:27;;;;;;;;;4.00;2.00;;;;;21.92;43.87;102477.13;4946855;28;45499;-70
2023/10/04 11:19:53;;;;;;;;;7.00;7.00;;;;;22.01;43.64;102484.19;4964072;28;45633;-68
2023/10/04 11:22:22;;;;;;;;;3.75;3.75;;;;;22.02;43.29;102475.03;4949040;28;46649;-68
2023/10/04 11:24:50;;;;;;;;;3.50;2.25;;;;;22.05;43.56;102485.59;4956896;28;45230;-69
2023/10/04 11:27:22;;;;;;;;;4.25;4.25;;;;;22.12;43.23;102491.13;4957931;28;45568;-71
2023/10/04 11:29:49;;;;;;;;;1.50;1.50;;;;;22.13;42.20;102495.53;4955500;28;45403;-70
2023/10/04 11:32:15;;;;;;;;;2.75;1.00;;;;;22.03;42.61;102486.75;4946068;28;47487;-70
2023/10/04 11:34:43;;;;;;;;;3.25;2.25;;;;;22.13;42.26;102500.94;4938808;28;45330;-70
2023/10/04 11:37:09;;;;;;;;;2.00;1.75;;;;;22.15;42.25;102482.63;4946368;28;45517;-69